createdAt,value
2023-02-24T00:00:51.562Z,2.67
2023-02-24T00:03:21.151Z,2.63
2023-02-24T00:05:51.103Z,2.20
2023-02-24T00:08:20.521Z,4.03
2023-02-24T00:10:50.520Z,3.07
2023-02-24T00:13:22.636Z,3.27
2023-02-24T00:16:02.562Z,2.63
2023-02-24T00:18:32.262Z,3.00
2023-02-24T00:21:08.274Z,2.63
2023-02-24T00:23:40.193Z,2.97
2023-02-24T00:26:11.155Z,3.40
2023-02-24T00:28:44.454Z,3.97
2023-02-24T00:31:16.898Z,2.97
2023-02-24T00:33:48.123Z,3.25
2023-02-24T00:36:24.011Z,3.05
2023-02-24T00:38:55.799Z,2.60
2023-02-24T00:41:29.319Z,3.50
2023-02-24T00:44:06.177Z,4.57
2023-02-24T00:46:38.041Z,5.00
2023-02-24T00:49:11.034Z,3.67
2023-02-24T00:51:42.347Z,2.47
2023-02-24T00:54:15.012Z,3.33
2023-02-24T00:59:20.468Z,3.00
2023-02-24T01:01:50.857Z,2.60
2023-02-24T01:04:21.570Z,2.57
2023-02-24T01:07:00.119Z,3.03
2023-02-24T01:09:31.982Z,2.97
2023-02-24T01:12:17.409Z,3.40
2023-02-24T01:14:50.836Z,4.17
2023-02-24T01:17:21.825Z,3.03
2023-02-24T01:19:52.043Z,2.60
2023-02-24T01:22:23.918Z,2.77
2023-02-24T01:24:53.729Z,3.38
2023-02-24T01:27:23.157Z,2.80
2023-02-24T01:29:55.126Z,3.03
2023-02-24T01:32:25.685Z,3.35
2023-02-24T01:34:56.001Z,3.37
2023-02-24T01:37:25.937Z,2.20
2023-02-24T01:39:55.777Z,2.37
2023-02-24T01:42:26.455Z,2.93
2023-02-24T01:45:15.626Z,2.50
2023-02-24T01:47:47.400Z,4.00
2023-02-24T01:50:21.739Z,3.22
2023-02-24T01:52:56.186Z,2.87
2023-02-24T01:55:32.200Z,2.57
2023-02-24T01:58:04.808Z,2.90
2023-02-24T02:03:26.967Z,2.40
2023-02-24T02:06:01.862Z,2.43
2023-02-24T02:08:32.261Z,2.73
2023-02-24T02:11:07.985Z,2.57
2023-02-24T02:13:39.532Z,2.37
2023-02-24T02:16:28.739Z,2.53
2023-02-24T02:19:11.401Z,2.93
2023-02-24T02:22:06.959Z,2.30
2023-02-24T02:24:48.471Z,2.20
2023-02-24T02:27:35.584Z,3.77
2023-02-24T02:30:43.901Z,2.00
2023-02-24T02:33:58.386Z,2.37
2023-02-24T02:36:34.751Z,3.43
2023-02-24T02:39:13.965Z,2.30
2023-02-24T02:41:53.541Z,2.87
2023-02-24T02:44:28.156Z,2.67
2023-02-24T02:47:03.694Z,2.70
2023-02-24T02:49:38.775Z,2.30
2023-02-24T02:52:17.866Z,2.50
2023-02-24T02:54:52.247Z,2.57
2023-02-24T02:57:26.114Z,2.50
2023-02-24T03:00:00.637Z,2.40
2023-02-24T03:02:40.057Z,2.27
2023-02-24T03:05:12.882Z,2.80
2023-02-24T03:07:51.215Z,2.22
2023-02-24T03:10:24.926Z,2.00
2023-02-24T03:12:58.341Z,2.03
2023-02-24T03:15:30.976Z,2.30
2023-02-24T03:18:10.360Z,2.83
2023-02-24T03:20:46.396Z,2.23
2023-02-24T03:23:25.355Z,2.17
2023-02-24T03:25:58.795Z,2.37
2023-02-24T03:28:37.507Z,2.23
2023-02-24T03:31:13.316Z,1.80
2023-02-24T03:33:48.088Z,2.53
2023-02-24T03:36:17.770Z,2.00
2023-02-24T03:38:50.592Z,1.90
2023-02-24T03:41:21.571Z,2.00
2023-02-24T03:43:55.433Z,1.83
2023-02-24T03:46:25.348Z,1.80
2023-02-24T03:49:01.745Z,1.47
2023-02-24T03:51:31.690Z,2.23
2023-02-24T03:54:22.343Z,2.27
2023-02-24T03:57:01.772Z,1.80
2023-02-24T03:59:43.313Z,1.47
2023-02-24T04:02:20.838Z,2.27
2023-02-24T04:04:58.373Z,1.60
2023-02-24T04:07:52.152Z,1.90
2023-02-24T04:10:31.162Z,1.70
2023-02-24T04:13:08.248Z,1.47
2023-02-24T04:15:44.073Z,1.63
2023-02-24T04:18:18.695Z,1.83
2023-02-24T04:20:53.266Z,1.70
2023-02-24T04:23:29.667Z,1.40
2023-02-24T04:26:02.496Z,1.90
2023-02-24T04:28:33.393Z,1.77
2023-02-24T04:31:07.349Z,1.40
2023-02-24T04:33:38.564Z,2.20
2023-02-24T04:36:09.231Z,1.50
2023-02-24T04:38:41.292Z,2.60
2023-02-24T04:41:17.895Z,1.73
2023-02-24T04:43:47.497Z,1.60
2023-02-24T04:46:17.571Z,1.80
2023-02-24T04:48:47.522Z,2.17
2023-02-24T04:51:17.034Z,2.03
2023-02-24T04:53:46.827Z,1.87
2023-02-24T04:56:19.326Z,2.27
2023-02-24T04:58:48.727Z,2.40
2023-02-24T05:01:18.403Z,1.47
2023-02-24T05:03:48.009Z,1.60
2023-02-24T05:06:19.294Z,1.57
2023-02-24T05:08:48.956Z,1.60
2023-02-24T05:11:21.217Z,2.57
2023-02-24T05:13:51.408Z,2.53
2023-02-24T05:16:22.404Z,2.03
2023-02-24T05:19:12.363Z,2.07
2023-02-24T05:21:39.160Z,2.03
2023-02-24T05:24:11.342Z,1.57
2023-02-24T05:26:44.290Z,1.38
2023-02-24T05:29:14.681Z,1.80
2023-02-24T05:31:44.539Z,1.60
2023-02-24T05:34:17.287Z,1.80
2023-02-24T05:39:19.422Z,1.70
2023-02-24T05:44:26.200Z,2.10
2023-02-24T05:46:59.575Z,1.33
2023-02-24T05:49:33.093Z,1.80
2023-02-24T05:52:07.742Z,2.33
2023-02-24T05:54:40.489Z,1.37
2023-02-24T05:57:17.053Z,1.55
2023-02-24T05:59:47.218Z,1.90
2023-02-24T06:02:27.360Z,1.60
2023-02-24T06:04:58.927Z,2.57
2023-02-24T06:07:34.242Z,1.40
2023-02-24T06:10:09.577Z,1.27
2023-02-24T06:12:41.724Z,1.73
2023-02-24T06:15:12.997Z,1.50
2023-02-24T06:17:43.631Z,1.37
2023-02-24T06:20:16.463Z,1.20
2023-02-24T06:25:15.158Z,1.43
2023-02-24T06:27:53.166Z,1.20
2023-02-24T06:30:24.716Z,1.10
2023-02-24T06:32:54.689Z,1.10
2023-02-24T06:35:24.170Z,1.30
2023-02-24T06:37:55.874Z,1.40
2023-02-24T06:40:25.330Z,1.30
2023-02-24T06:42:57.276Z,1.27
2023-02-24T06:45:27.222Z,1.52
2023-02-24T06:47:58.071Z,1.60
2023-02-24T06:50:28.855Z,1.20
2023-02-24T06:53:00.873Z,1.40
2023-02-24T06:55:35.597Z,1.70
2023-02-24T06:58:07.643Z,1.10
2023-02-24T07:00:40.799Z,1.10
2023-02-24T07:03:19.233Z,1.97
2023-02-24T07:05:54.456Z,1.47
2023-02-24T07:08:27.350Z,1.33
2023-02-24T07:13:31.440Z,1.40
2023-02-24T07:16:07.007Z,1.20
2023-02-24T07:18:36.467Z,1.50
2023-02-24T07:21:11.600Z,1.10
2023-02-24T07:23:42.269Z,1.60
2023-02-24T07:26:12.865Z,0.93
2023-02-24T07:28:48.081Z,1.20
2023-02-24T07:31:21.105Z,1.30
2023-02-24T07:33:52.315Z,1.53
2023-02-24T07:36:23.350Z,1.60
2023-02-24T07:38:55.192Z,1.33
2023-02-24T07:41:26.497Z,1.30
2023-02-24T07:43:59.773Z,1.00
2023-02-24T07:46:30.615Z,1.17
2023-02-24T07:49:01.624Z,0.90
2023-02-24T07:51:32.099Z,1.27
2023-02-24T07:54:03.525Z,1.30
2023-02-24T07:56:34.177Z,1.23
2023-02-24T07:59:11.274Z,0.83
2023-02-24T08:01:49.609Z,1.20
2023-02-24T08:04:23.450Z,1.20
2023-02-24T08:06:56.190Z,1.00
2023-02-24T08:12:21.494Z,1.30
2023-02-24T08:15:00.427Z,1.20
2023-02-24T08:17:30.375Z,1.27
2023-02-24T08:20:21.957Z,1.43
2023-02-24T08:22:54.804Z,1.50
2023-02-24T08:28:07.957Z,1.20
2023-02-24T08:30:45.570Z,1.90
2023-02-24T08:33:18.510Z,1.70
2023-02-24T08:38:19.529Z,1.77
2023-02-24T08:40:55.155Z,1.58
2023-02-24T08:43:35.931Z,1.03
2023-02-24T08:46:18.611Z,1.70
2023-02-24T08:48:50.723Z,1.55
2023-02-24T08:51:23.822Z,1.50
2023-02-24T08:53:55.358Z,1.13
2023-02-24T08:56:27.837Z,1.40
2023-02-24T08:59:05.533Z,1.33
2023-02-24T09:01:40.073Z,1.27
2023-02-24T09:04:11.967Z,1.47
2023-02-24T09:06:44.822Z,1.17
2023-02-24T09:09:22.618Z,1.93
2023-02-24T09:11:56.551Z,1.53
2023-02-24T09:14:29.356Z,1.93
2023-02-24T09:17:06.431Z,1.90
2023-02-24T09:19:52.706Z,2.00
2023-02-24T09:22:32.638Z,3.17
2023-02-24T09:25:16.897Z,2.37
2023-02-24T09:27:48.192Z,1.90
2023-02-24T09:30:35.917Z,2.20
2023-02-24T09:33:22.410Z,2.33
2023-02-24T09:36:02.995Z,2.30
2023-02-24T09:38:46.051Z,2.57
2023-02-24T09:41:32.137Z,2.10
2023-02-24T09:44:08.335Z,2.57
2023-02-24T09:46:53.891Z,2.30
2023-02-24T09:49:39.982Z,2.33
2023-02-24T09:52:17.156Z,1.90
2023-02-24T09:55:09.785Z,2.37
2023-02-24T09:58:04.706Z,2.35
2023-02-24T10:00:44.368Z,2.33
2023-02-24T10:03:42.196Z,1.93
2023-02-24T10:06:23.186Z,2.20
2023-02-24T10:08:57.708Z,2.30
2023-02-24T10:11:35.477Z,2.43
2023-02-24T10:14:08.501Z,2.40
2023-02-24T10:16:58.819Z,2.83
2023-02-24T10:19:34.176Z,2.40
2023-02-24T10:22:27.458Z,2.50
2023-02-24T10:25:13.532Z,2.60
2023-02-24T10:27:57.971Z,2.03
2023-02-24T10:30:43.491Z,2.50
2023-02-24T10:33:25.422Z,2.43
2023-02-24T10:36:09.356Z,2.10
2023-02-24T10:38:45.594Z,2.03
2023-02-24T10:41:17.365Z,1.70
2023-02-24T10:43:57.013Z,2.20
2023-02-24T10:46:41.009Z,1.70
2023-02-24T10:49:17.078Z,1.87
2023-02-24T10:51:54.035Z,2.00
2023-02-24T10:54:53.113Z,2.00
2023-02-24T10:57:40.790Z,1.70
2023-02-24T11:00:32.778Z,1.40
2023-02-24T11:03:22.083Z,1.70
2023-02-24T11:06:08.289Z,1.50
2023-02-24T11:08:44.145Z,1.50
2023-02-24T11:11:25.756Z,1.97
2023-02-24T11:14:09.234Z,1.57
2023-02-24T11:17:00.219Z,1.53
2023-02-24T11:19:31.973Z,1.70
2023-02-24T11:22:02.508Z,1.50
2023-02-24T11:24:32.044Z,1.80
2023-02-24T11:27:06.302Z,1.67
2023-02-24T11:29:47.001Z,1.67
2023-02-24T11:32:31.948Z,1.70
2023-02-24T11:35:12.817Z,2.03
2023-02-24T11:37:45.833Z,1.77
2023-02-24T11:40:23.245Z,1.70
2023-02-24T11:42:59.361Z,1.97
2023-02-24T11:45:35.641Z,1.83
2023-02-24T11:48:10.322Z,1.80
2023-02-24T11:50:45.207Z,1.93
2023-02-24T11:53:27.844Z,1.90
2023-02-24T11:56:02.782Z,2.00
2023-02-24T11:58:42.562Z,2.20
2023-02-24T12:01:17.236Z,1.70
2023-02-24T12:03:54.664Z,1.70
2023-02-24T12:06:30.778Z,1.80
2023-02-24T12:09:07.835Z,1.77
2023-02-24T12:11:45.998Z,1.90
2023-02-24T12:14:28.765Z,2.27
2023-02-24T12:17:07.830Z,1.80
2023-02-24T12:19:48.659Z,1.90
2023-02-24T12:22:18.787Z,2.17
2023-02-24T12:24:51.632Z,2.20
2023-02-24T12:27:32.066Z,2.47
2023-02-24T12:30:34.280Z,2.70
2023-02-24T12:33:16.801Z,2.00
2023-02-24T12:35:50.016Z,1.95
2023-02-24T12:38:36.432Z,2.43
2023-02-24T12:41:18.048Z,2.10
2023-02-24T12:43:53.081Z,2.27
2023-02-24T12:46:29.547Z,2.30
2023-02-24T12:49:12.063Z,2.30
2023-02-24T12:51:50.848Z,2.53
2023-02-24T12:54:26.414Z,2.40
2023-02-24T12:57:03.358Z,2.57
2023-02-24T12:59:38.036Z,2.40
2023-02-24T13:02:18.179Z,2.40
2023-02-24T13:04:56.444Z,2.77
2023-02-24T13:07:39.614Z,2.70
2023-02-24T13:10:21.143Z,2.83
2023-02-24T13:12:56.695Z,2.73
2023-02-24T13:15:31.412Z,3.27
2023-02-24T13:18:03.775Z,2.90
2023-02-24T13:20:36.517Z,2.67
2023-02-24T13:23:21.544Z,3.22
2023-02-24T13:25:54.472Z,2.73
2023-02-24T13:28:28.307Z,3.03
2023-02-24T13:31:03.018Z,3.30
2023-02-24T13:33:38.711Z,2.93
2023-02-24T13:36:13.205Z,2.60
2023-02-24T13:38:46.157Z,3.07
2023-02-24T13:41:40.729Z,2.93
2023-02-24T13:44:30.501Z,2.83
2023-02-24T13:47:24.988Z,3.00
2023-02-24T13:50:18.864Z,3.00
2023-02-24T13:52:59.571Z,3.10
2023-02-24T13:55:43.865Z,3.40
2023-02-24T13:58:30.631Z,3.30
2023-02-24T14:01:09.843Z,3.67
2023-02-24T14:03:42.259Z,3.13
2023-02-24T14:06:24.725Z,3.47
2023-02-24T14:08:57.489Z,3.65
2023-02-24T14:14:00.694Z,2.88
2023-02-24T14:16:35.817Z,3.60
2023-02-24T14:19:06.626Z,3.40
2023-02-24T14:21:38.676Z,3.53
2023-02-24T14:24:15.834Z,3.22
2023-02-24T14:26:47.652Z,3.70
2023-02-24T14:29:21.142Z,3.50
2023-02-24T14:31:52.681Z,3.43
2023-02-24T14:34:24.785Z,3.80
2023-02-24T14:36:59.681Z,3.50
2023-02-24T14:39:31.662Z,4.17
2023-02-24T14:42:17.784Z,3.83
2023-02-24T14:44:51.359Z,3.37
2023-02-24T14:47:22.504Z,4.20
2023-02-24T14:49:58.032Z,4.57
2023-02-24T14:52:38.209Z,3.63
2023-02-24T14:55:13.711Z,4.23
2023-02-24T14:57:47.695Z,3.93
2023-02-24T15:00:24.024Z,3.53
2023-02-24T15:02:59.061Z,4.43
2023-02-24T15:05:28.567Z,3.40
2023-02-24T15:08:01.619Z,4.30
2023-02-24T15:10:33.542Z,3.73
2023-02-24T15:13:13.613Z,3.60
2023-02-24T15:15:43.199Z,3.73
2023-02-24T15:18:20.776Z,4.00
2023-02-24T15:20:51.045Z,3.43
2023-02-24T15:23:31.606Z,4.10
2023-02-24T15:26:01.719Z,4.00
2023-02-24T15:28:33.734Z,4.00
2023-02-24T15:31:09.747Z,4.00
2023-02-24T15:33:42.091Z,4.37
2023-02-24T15:36:14.942Z,4.67
2023-02-24T15:38:48.084Z,4.20
2023-02-24T15:41:17.511Z,5.07
2023-02-24T15:43:53.163Z,4.43
2023-02-24T15:46:26.712Z,4.50
2023-02-24T15:48:58.312Z,4.60
2023-02-24T15:51:34.903Z,3.90
2023-02-24T15:54:09.969Z,4.03
2023-02-24T15:56:39.632Z,4.00
2023-02-24T15:59:09.198Z,4.50
2023-02-24T16:01:38.551Z,5.33
2023-02-24T16:04:09.629Z,4.57
2023-02-24T16:06:42.222Z,5.33
2023-02-24T16:09:19.658Z,4.50
2023-02-24T16:11:49.994Z,4.60
2023-02-24T16:14:20.771Z,5.07
2023-02-24T16:16:50.128Z,5.53
2023-02-24T16:19:19.922Z,4.70
2023-02-24T16:21:49.274Z,4.90
2023-02-24T16:24:21.774Z,5.40
2023-02-24T16:26:51.520Z,5.10
2023-02-24T16:29:21.030Z,5.87
2023-02-24T16:31:50.668Z,5.57
2023-02-24T16:34:20.133Z,4.60
2023-02-24T16:36:49.546Z,5.57
2023-02-24T16:39:21.603Z,5.30
2023-02-24T16:41:50.980Z,5.60
2023-02-24T16:44:20.400Z,5.13
2023-02-24T16:46:49.820Z,4.67
2023-02-24T16:49:22.424Z,4.37
2023-02-24T16:51:51.865Z,4.38
2023-02-24T16:54:29.038Z,4.60
2023-02-24T16:56:58.547Z,4.33
2023-02-24T16:59:29.014Z,3.80
2023-02-24T17:01:59.629Z,3.60
2023-02-24T17:04:29.120Z,3.43
2023-02-24T17:06:58.501Z,3.90
2023-02-24T17:09:31.544Z,3.60
2023-02-24T17:12:02.349Z,4.20
2023-02-24T17:14:31.810Z,3.63
2023-02-24T17:17:02.417Z,3.67
2023-02-24T17:19:31.831Z,3.60
2023-02-24T17:22:02.355Z,3.30
2023-02-24T17:24:34.357Z,3.40
2023-02-24T17:27:04.402Z,3.28
2023-02-24T17:29:33.848Z,3.80
2023-02-24T17:32:03.443Z,3.73
2023-02-24T17:34:32.900Z,3.40
2023-02-24T17:37:02.259Z,3.70
2023-02-24T17:39:34.273Z,3.57
2023-02-24T17:42:03.645Z,4.70
2023-02-24T17:44:33.362Z,4.67
2023-02-24T17:47:02.696Z,3.50
2023-02-24T17:49:32.123Z,3.80
2023-02-24T17:52:01.502Z,3.23
2023-02-24T17:54:30.905Z,3.90
2023-02-24T17:57:03.113Z,3.63
2023-02-24T17:59:32.825Z,3.53
2023-02-24T18:02:02.655Z,3.67
2023-02-24T18:04:32.514Z,3.60
2023-02-24T18:07:01.853Z,3.50
2023-02-24T18:09:31.264Z,3.60
2023-02-24T18:12:03.474Z,4.33
2023-02-24T18:14:33.577Z,3.72
2023-02-24T18:17:03.020Z,3.50
2023-02-24T18:19:32.909Z,3.67
2023-02-24T18:22:02.629Z,3.27
2023-02-24T18:24:32.023Z,3.20
2023-02-24T18:27:04.392Z,3.57
2023-02-24T18:29:34.409Z,3.15
2023-02-24T18:32:04.051Z,2.83
2023-02-24T18:34:33.670Z,2.90
2023-02-24T18:37:03.226Z,3.73
2023-02-24T18:39:32.766Z,3.20
2023-02-24T18:42:04.688Z,3.47
2023-02-24T18:44:34.174Z,3.38
2023-02-24T18:47:09.350Z,3.67
2023-02-24T18:49:39.060Z,2.73
2023-02-24T18:52:08.494Z,2.37
2023-02-24T18:54:37.955Z,2.20
2023-02-24T18:57:09.920Z,2.40
2023-02-24T18:59:39.427Z,2.25
2023-02-24T19:02:09.039Z,2.20
2023-02-24T19:04:38.601Z,2.10
2023-02-24T19:07:08.498Z,2.70
2023-02-24T19:09:39.263Z,2.17
2023-02-24T19:12:12.741Z,2.10
2023-02-24T19:14:42.591Z,2.05
2023-02-24T19:17:12.112Z,1.93
2023-02-24T19:19:43.419Z,2.23
2023-02-24T19:22:12.823Z,1.60
2023-02-24T19:24:43.046Z,1.90
2023-02-24T19:27:15.167Z,2.00
2023-02-24T19:29:44.714Z,1.92
2023-02-24T19:32:14.312Z,1.57
2023-02-24T19:34:43.879Z,1.70
2023-02-24T19:37:13.305Z,1.77
2023-02-24T19:39:42.730Z,1.90
2023-02-24T19:42:14.653Z,1.80
2023-02-24T19:44:44.116Z,2.20
2023-02-24T19:47:13.509Z,2.37
2023-02-24T19:49:42.840Z,2.50
2023-02-24T19:52:12.690Z,2.57
2023-02-24T19:54:42.121Z,2.70
2023-02-24T19:57:11.549Z,2.87
2023-02-24T19:59:44.714Z,2.17
2023-02-24T20:02:14.118Z,2.50
2023-02-24T20:04:44.852Z,2.60
2023-02-24T20:07:14.516Z,2.30
2023-02-24T20:09:45.314Z,2.50
2023-02-24T20:12:14.825Z,2.53
2023-02-24T20:14:46.858Z,2.00
2023-02-24T20:17:17.656Z,2.75
2023-02-24T20:19:47.449Z,3.07
2023-02-24T20:22:16.810Z,2.73
2023-02-24T20:24:47.442Z,4.40
2023-02-24T20:27:19.177Z,3.80
2023-02-24T20:29:53.665Z,2.58
2023-02-24T20:32:23.859Z,2.27
2023-02-24T20:34:54.014Z,2.43
2023-02-24T20:37:25.911Z,3.20
2023-02-24T20:39:59.309Z,2.20
2023-02-24T20:42:29.321Z,3.20
2023-02-24T20:45:03.291Z,2.40
2023-02-24T20:47:33.525Z,2.37
2023-02-24T20:50:05.060Z,2.30
2023-02-24T20:52:37.875Z,2.40
2023-02-24T20:57:37.396Z,2.27
2023-02-24T21:00:10.839Z,2.30
2023-02-24T21:02:42.401Z,2.90
2023-02-24T21:05:17.035Z,2.60
2023-02-24T21:07:46.464Z,3.17
2023-02-24T21:10:16.327Z,2.60
2023-02-24T21:12:45.783Z,2.90
2023-02-24T21:15:17.895Z,2.17
2023-02-24T21:17:47.311Z,3.33
2023-02-24T21:20:17.296Z,2.80
2023-02-24T21:22:46.708Z,3.10
2023-02-24T21:25:16.116Z,2.77
2023-02-24T21:27:45.492Z,3.33
2023-02-24T21:30:17.983Z,4.03
2023-02-24T21:32:47.430Z,3.17
2023-02-24T21:35:16.932Z,2.87
2023-02-24T21:37:46.336Z,3.03
2023-02-24T21:40:17.684Z,3.00
2023-02-24T21:42:47.766Z,2.87
2023-02-24T21:45:19.802Z,3.57
2023-02-24T21:47:49.200Z,3.38
2023-02-24T21:50:19.934Z,3.00
2023-02-24T21:52:49.389Z,3.03
2023-02-24T21:55:20.068Z,3.20
2023-02-24T21:57:49.492Z,2.97
2023-02-24T22:00:24.175Z,2.97
2023-02-24T22:02:56.667Z,3.43
2023-02-24T22:05:28.373Z,2.63
2023-02-24T22:07:57.769Z,2.83
2023-02-24T22:10:27.115Z,3.17
2023-02-24T22:12:58.793Z,2.90
2023-02-24T22:15:30.782Z,2.63
2023-02-24T22:18:00.135Z,3.28
2023-02-24T22:20:29.494Z,2.97
2023-02-24T22:22:58.890Z,2.63
2023-02-24T22:25:28.201Z,2.57
2023-02-24T22:27:57.545Z,2.73
2023-02-24T22:30:27.117Z,2.93
2023-02-24T22:32:59.070Z,2.63
2023-02-24T22:35:28.385Z,2.78
2023-02-24T22:37:57.725Z,3.33
2023-02-24T22:40:27.196Z,3.33
2023-02-24T22:42:56.560Z,2.70
2023-02-24T22:45:26.121Z,3.27
2023-02-24T22:47:55.497Z,2.70
2023-02-24T22:50:27.435Z,3.03
2023-02-24T22:52:56.873Z,3.03
2023-02-24T22:55:26.224Z,3.70
2023-02-24T22:57:55.606Z,2.80
2023-02-24T23:00:26.258Z,2.80
2023-02-24T23:02:56.437Z,2.77
2023-02-24T23:05:29.289Z,3.50
2023-02-24T23:07:58.671Z,3.00
2023-02-24T23:10:28.096Z,2.30
2023-02-24T23:12:58.079Z,2.53
2023-02-24T23:15:27.569Z,3.60
2023-02-24T23:17:56.980Z,2.93
2023-02-24T23:20:29.647Z,2.93
2023-02-24T23:25:30.148Z,3.60
2023-02-24T23:27:59.874Z,2.70
2023-02-24T23:30:29.619Z,2.60
2023-02-24T23:32:59.501Z,3.30
2023-02-24T23:35:31.486Z,2.27
2023-02-24T23:38:00.835Z,3.00
2023-02-24T23:40:41.269Z,2.53
2023-02-24T23:43:17.818Z,3.30
2023-02-24T23:45:47.332Z,2.93
2023-02-24T23:50:51.185Z,4.03
2023-02-24T23:53:20.590Z,3.10
2023-02-24T23:55:50.482Z,3.17
2023-02-24T23:58:20.297Z,3.07
